64010 station(s) have been heard in the last 24 hours.

<< 633 634 635 636 637 638 639 >>
  Name/Id Latest heard Comment/Other Map
Symbol DL0OHA-99 1788365178 Digipeater#Foerste/B=100 Map
Symbol NDSU-UHF 1788365178 444.000MHz +500 | D-STAR RPT | http://w0hsc.org Map
Symbol W3PRO-C 1788365178 2m Voice 145.280 -0.600 Map
Symbol K9EAG-D 1788365178 70cm MMDVM Voice (DMR) 443.05000MHz +5.0000MHz, APRS for DMRGateway Map
Symbol K3WRB-R 1788365178 2m MMDVM Voice (C4FM) 145.43000MHz -0.6000MHz, K3WRB_Pi-Star_RPT Map
Symbol DG3ACM-11 1788365177 LoRa iGATE at DG3ACM, call me via DB0GWG Map
Symbol KO6ASW-10 1788365177 144.910MHz Winlink Packet Gateway Map
Symbol BG6RKE-B 1788365177 70cm Voice (D-Star) 433.63000MHz +0.0000MHz Map
Symbol VE2PAI B 1788365177 70cm Voice (D-Star) 443.12500MHz +0.0000MHz Map
Symbol E24DA C 1788365177 2m Voice 145.6125 MHz -0.600 MHz @NBTC Map
Symbol W4KEL-2 1788365177 '|3 Map
Symbol E24DA B 1788365177 70cm Voice 438.0125 MHz -5.00 MHz @NBTC Map
Symbol VK3RWN C 1788365177 2m Voice 146.9125 -0.600 MHz Map
Symbol IZ5HQB-10 1788365177 LoRa APRS IZ5HQB Map
Symbol OH2DMRI 1788365177 RD625 434.5000/432.5000 CC1 Map
Symbol VK3RWN A 1788365177 1.2 Voice 1273.9000 +20 MHz Map
Symbol F5ZQD-10 1788365177 LoRa APRS Batt=4.21V Map
Symbol VK3RWN B 1788365177 440 Voice 438.3000 -5.40 MHz Map
Symbol OH7DMRL 1788365177 RD625 438.1375/433.1375 CC1 Map
Symbol HK3RLG-5 1788365177 https://aprsdroid.org Map
Symbol 2E0LXY-9 1788365177 UK LoRa APRS iGate + WIDE1 Digi Map
Symbol VK5RAE-1 1788365177 Mt Arden Ui-Digi PF87XU 864m ASL Map
Symbol ZS4OIL-P 1788365177 70.150 Mhz PARROT REPEATER Map
Symbol OH6RAH 1788365177 MMDVM 434.6750/432.6750 CC1 Map
Symbol DG2MCM-13 1788365177 Map
Symbol KG5QYM-R 1788365177 2m MMDVM Voice (DMR) 145.23000MHz -0.6000MHz, APRS for DMRGateway Map
Symbol VK3RWN AD 1788365177 1.2 Data 1298.3000 MHz Map
Symbol VE1NWC-10 1788365177 Map
Symbol N9RM-D 1788365177 70cm MMDVM Voice (DMR) 446.55000MHz +0.0000MHz, APRS for DMRGateway Map
Symbol SQ3A-2 1788365177 sq3a.pl | APRS IGate RX HEIGHT=36 GAIN=9 Map
Symbol JP1YGQ-I 1788365177 D-STAR -> APRS Map
Symbol KT0V-1 1788365177 13.7V 73F KT0V-1 W3, WIn Suring, WI OpenTracker2 Map
Symbol LU4AIM-B 1788365177 440 Voice 438.80000MHz +0.0000MHz Map
Symbol TA2JW-D 1788365177 70cm MMDVM Voice (DMR) 432.82500MHz +0.0000MHz, APRS for DMRGateway Map
Symbol ED2ZAG-R 1788365176 70cm MMDVM Voice (C4FM) 438.25000MHz -7.6000MHz, ED2ZAG-RPT Map
Symbol EA3GZL-D 1788365176 70cm MMDVM Voice (DMR) 430.41250MHz +0.0000MHz, APRS for DMRGateway Map
Symbol G1PIE-B 1788365176 70cm Voice (D-Star) 438.80000MHz +0.0000MHz Map
Symbol EA2EYO-N 1788365176 70cm MMDVM Voice (C4FM) 430.55000MHz +0.0000MHz, EA2EYO_Pi-Star_ND Map
Symbol ED1ZAT-B 1788365176 70cm Voice (D-Star) 438.32500MHz -7.6000MHz Map
Symbol KO4YSQ-10 1788365176 145.100MHz Winlink Packet Gateway Map
Symbol W5LP-B 1788365176 70cm Voice (D-Star) 438.90000MHz +5.0000MHz Map
Symbol 9M8DEN-4 1788365176 https://github.com/richonguzman/LoRa_APRS_iGate 2025-08-04 Map
Symbol AA9MQ-10 1788365176 LoRa APRS 433.775Mhz Map
Symbol IW2CLJ-N 1788365176 70cm MMDVM Voice (C4FM) 433.05000MHz +0.0000MHz, IW2CLJ_Pi-Star_ND Map
Symbol OE1MOJ-12 1788365176 B=100 Map
Symbol OK4MD-14 1788365176 Temp: 19.69C Pressure: 1019hPa, Wind: 1.38m/s at 300 Map
Symbol DB0SVX 1788365176 438.762MHz Toff -760 EchoLink #255411 Map
Symbol K3RMB B 1788365176 440 Voice 440.97500MHz +0.0000MHz Map
Symbol N0OJ-Y 1788365176 Powered by WPSD (https://wpsd.radio) Map
Symbol SQ9IWE-10 1788365176 APRSbox Map